createdAt,value
2022-09-26T00:00:03.218Z,97239.13
2022-09-26T00:03:15.009Z,97233.06
2022-09-26T00:06:18.745Z,97232.00
2022-09-26T00:09:22.880Z,97223.03
2022-09-26T00:12:27.060Z,97214.97
2022-09-26T00:15:31.046Z,97211.78
2022-09-26T00:18:34.163Z,97208.91
2022-09-26T00:21:37.412Z,97213.41
2022-09-26T00:24:40.308Z,97209.44
2022-09-26T00:27:44.409Z,97207.34
2022-09-26T00:30:47.208Z,97210.16
2022-09-26T00:33:50.132Z,97203.03
2022-09-26T00:36:52.874Z,97197.03
2022-09-26T00:39:55.734Z,97199.66
2022-09-26T00:43:02.347Z,97189.59
2022-09-26T00:46:13.994Z,97197.50
2022-09-26T00:49:25.663Z,97191.03
2022-09-26T00:52:33.984Z,97183.31
2022-09-26T00:55:40.532Z,97190.88
2022-09-26T00:58:49.324Z,97187.34
2022-09-26T01:01:53.772Z,97179.16
2022-09-26T01:04:59.168Z,97184.06
2022-09-26T01:08:03.858Z,97175.56
2022-09-26T01:11:07.863Z,97180.44
2022-09-26T01:14:13.796Z,97182.69
2022-09-26T01:17:17.552Z,97183.44
2022-09-26T01:20:32.516Z,97174.28
2022-09-26T01:24:11.447Z,97172.75
2022-09-26T01:27:36.031Z,97167.81
2022-09-26T01:30:45.196Z,97168.22
2022-09-26T01:34:00.073Z,97165.31
2022-09-26T01:37:10.842Z,97166.13
2022-09-26T01:40:23.815Z,97168.63
2022-09-26T01:43:35.728Z,97166.66
2022-09-26T01:46:45.790Z,97162.31
2022-09-26T01:49:55.928Z,97172.53
2022-09-26T01:53:04.787Z,97167.06
2022-09-26T01:56:12.170Z,97170.97
2022-09-26T01:59:21.386Z,97175.69
2022-09-26T02:02:34.111Z,97170.81
2022-09-26T02:05:42.334Z,97161.38
2022-09-26T02:08:52.537Z,97153.22
2022-09-26T02:12:02.384Z,97144.69
2022-09-26T02:15:10.686Z,97147.94
2022-09-26T02:18:21.222Z,97148.88
2022-09-26T02:21:25.311Z,97150.75
2022-09-26T02:24:29.440Z,97143.97
2022-09-26T02:27:32.643Z,97143.00
2022-09-26T02:30:36.412Z,97141.63
2022-09-26T02:33:40.623Z,97140.06
2022-09-26T02:36:43.901Z,97141.94
2022-09-26T02:39:49.669Z,97143.41
2022-09-26T02:43:15.831Z,97147.00
2022-09-26T02:47:00.096Z,97143.53
2022-09-26T02:50:21.067Z,97142.56
2022-09-26T02:53:39.373Z,97147.47
2022-09-26T02:56:55.436Z,97148.72
2022-09-26T03:00:06.545Z,97139.69
2022-09-26T03:03:19.480Z,97145.94
2022-09-26T03:06:28.678Z,97145.94
2022-09-26T03:09:32.006Z,97141.88
2022-09-26T03:12:35.561Z,97146.81
2022-09-26T03:15:41.538Z,97141.06
2022-09-26T03:18:53.376Z,97141.00
2022-09-26T03:21:58.825Z,97131.53
2022-09-26T03:25:02.247Z,97129.03
2022-09-26T03:28:07.335Z,97126.81
2022-09-26T03:31:10.116Z,97115.22
2022-09-26T03:34:26.498Z,97127.00
2022-09-26T03:37:30.734Z,97125.88
2022-09-26T03:40:33.510Z,97116.97
2022-09-26T03:44:08.505Z,97106.09
2022-09-26T03:47:34.947Z,97103.25
2022-09-26T03:50:40.101Z,97102.06
2022-09-26T03:53:47.136Z,97106.09
2022-09-26T03:56:52.219Z,97110.53
2022-09-26T03:59:55.272Z,97107.72
2022-09-26T04:03:03.232Z,97117.13
2022-09-26T04:06:15.306Z,97110.09
2022-09-26T04:09:21.035Z,97104.31
2022-09-26T04:12:27.126Z,97107.59
2022-09-26T04:15:30.949Z,97101.56
2022-09-26T04:18:43.699Z,97106.44
2022-09-26T04:21:46.853Z,97110.28
2022-09-26T04:24:51.674Z,97110.09
2022-09-26T04:27:54.485Z,97112.16
2022-09-26T04:30:58.857Z,97121.94
2022-09-26T04:34:01.672Z,97110.22
2022-09-26T04:37:05.186Z,97107.00
2022-09-26T04:40:11.569Z,97114.31
2022-09-26T04:43:21.593Z,97110.22
2022-09-26T04:46:30.639Z,97102.81
2022-09-26T04:49:34.900Z,97105.69
2022-09-26T04:52:37.826Z,97108.81
2022-09-26T04:55:46.014Z,97109.22
2022-09-26T04:58:50.294Z,97106.75
2022-09-26T05:01:54.162Z,97116.56
2022-09-26T05:05:12.658Z,97109.97
2022-09-26T05:08:16.140Z,97109.72
2022-09-26T05:11:21.588Z,97106.38
2022-09-26T05:14:25.077Z,97105.59
2022-09-26T05:17:27.910Z,97101.56
2022-09-26T05:20:35.938Z,97103.47
2022-09-26T05:23:57.139Z,97100.88
2022-09-26T05:27:01.435Z,97101.44
2022-09-26T05:30:04.566Z,97097.03
2022-09-26T05:33:07.889Z,97098.31
2022-09-26T05:36:10.639Z,97090.47
2022-09-26T05:39:27.698Z,97098.19
2022-09-26T05:42:31.896Z,97101.44
2022-09-26T05:45:34.730Z,97105.31
2022-09-26T05:48:40.548Z,97098.25
2022-09-26T05:51:53.255Z,97106.44
2022-09-26T05:54:56.532Z,97105.03
2022-09-26T05:58:19.672Z,97105.66
2022-09-26T06:01:40.989Z,97114.34
2022-09-26T06:04:57.659Z,97123.13
2022-09-26T06:08:15.766Z,97119.63
2022-09-26T06:11:25.014Z,97117.25
2022-09-26T06:14:29.674Z,97121.31
2022-09-26T06:17:32.582Z,97122.91
2022-09-26T06:20:35.522Z,97120.88
2022-09-26T06:23:38.695Z,97121.88
2022-09-26T06:26:42.545Z,97119.31
2022-09-26T06:29:46.816Z,97117.75
2022-09-26T06:32:49.649Z,97121.13
2022-09-26T06:36:11.626Z,97114.84
2022-09-26T06:39:14.931Z,97114.00
2022-09-26T06:42:18.065Z,97111.06
2022-09-26T06:45:45.979Z,97129.63
2022-09-26T06:49:07.787Z,97107.31
2022-09-26T06:52:37.030Z,97094.41
2022-09-26T06:55:39.872Z,97096.28
2022-09-26T06:58:43.026Z,97089.38
2022-09-26T07:01:47.926Z,97080.66
2022-09-26T07:05:09.894Z,97082.09
2022-09-26T07:08:18.029Z,97075.88
2022-09-26T07:11:56.190Z,97077.94
2022-09-26T07:14:43.824Z,97074.31
2022-09-26T07:18:03.056Z,97064.63
2022-09-26T07:21:24.432Z,97062.03
2022-09-26T07:24:42.673Z,97068.97
2022-09-26T07:27:51.605Z,97051.75
2022-09-26T07:30:58.173Z,97039.59
2022-09-26T07:34:14.661Z,97016.91
2022-09-26T07:37:20.877Z,96997.06
2022-09-26T07:40:24.469Z,96983.53
2022-09-26T07:43:53.682Z,96963.25
2022-09-26T07:47:16.912Z,96949.03
2022-09-26T07:50:21.541Z,96897.72
2022-09-26T07:53:41.232Z,96854.34
2022-09-26T07:57:04.832Z,96827.19
2022-09-26T08:00:31.664Z,96803.88
2022-09-26T08:03:48.546Z,96787.41
2022-09-26T08:07:05.071Z,96765.06
2022-09-26T08:10:20.037Z,96723.25
2022-09-26T08:13:43.394Z,96666.81
2022-09-26T08:16:56.316Z,96613.19
2022-09-26T08:20:00.185Z,96548.41
2022-09-26T08:23:04.450Z,96509.44
2022-09-26T08:26:08.377Z,96456.00
2022-09-26T08:29:18.597Z,96429.50
2022-09-26T08:32:24.559Z,96419.28
2022-09-26T08:35:27.609Z,96397.25
2022-09-26T08:38:51.777Z,96388.94
2022-09-26T08:42:31.354Z,96373.66
2022-09-26T08:46:17.694Z,96366.44
2022-09-26T08:49:49.047Z,96356.66
2022-09-26T08:52:54.287Z,96362.81
2022-09-26T08:56:01.659Z,96350.50
2022-09-26T08:59:10.849Z,96346.38
2022-09-26T09:02:21.412Z,96343.16
2022-09-26T09:05:33.688Z,96339.81
2022-09-26T09:08:41.074Z,96337.44
2022-09-26T09:12:09.813Z,96338.53
2022-09-26T09:15:29.834Z,96348.69
2022-09-26T09:18:50.527Z,96343.22
2022-09-26T09:22:27.845Z,96344.63
2022-09-26T09:25:48.297Z,96348.88
2022-09-26T09:29:10.446Z,96359.28
2022-09-26T09:32:22.454Z,96356.13
2022-09-26T09:35:41.227Z,96362.88
2022-09-26T09:39:07.154Z,96370.50
2022-09-26T09:42:32.252Z,96361.44
2022-09-26T09:45:42.895Z,96357.22
2022-09-26T09:48:48.289Z,96352.09
2022-09-26T09:52:04.913Z,96362.06
2022-09-26T09:55:17.782Z,96378.75
2022-09-26T09:58:37.101Z,96373.53
2022-09-26T10:01:45.049Z,96367.91
2022-09-26T10:05:00.972Z,96366.66
2022-09-26T10:08:09.806Z,96368.75
2022-09-26T10:11:43.421Z,96356.81
2022-09-26T10:15:07.670Z,96371.75
2022-09-26T10:18:31.428Z,96374.91
2022-09-26T10:21:47.477Z,96381.09
2022-09-26T10:24:51.044Z,96376.50
2022-09-26T10:27:58.060Z,96390.69
2022-09-26T10:31:08.466Z,96381.56
2022-09-26T10:34:29.150Z,96389.66
2022-09-26T10:37:32.405Z,96384.22
2022-09-26T10:40:58.373Z,96384.81
2022-09-26T10:44:02.295Z,96372.94
2022-09-26T10:47:25.957Z,96377.19
2022-09-26T10:50:51.455Z,96367.28
2022-09-26T10:54:18.792Z,96375.47
2022-09-26T10:57:29.557Z,96371.66
2022-09-26T11:00:40.225Z,96380.06
2022-09-26T11:03:50.765Z,96379.97
2022-09-26T11:07:02.293Z,96375.25
2022-09-26T11:10:14.949Z,96369.38
2022-09-26T11:13:28.575Z,96351.94
2022-09-26T11:16:51.142Z,96365.06
2022-09-26T11:20:02.187Z,96367.94
2022-09-26T11:23:17.773Z,96380.19
2022-09-26T11:26:27.853Z,96360.03
2022-09-26T11:29:42.999Z,96354.97
2022-09-26T11:32:58.758Z,96354.88
2022-09-26T11:36:47.039Z,96345.97
2022-09-26T11:40:10.150Z,96351.03
2022-09-26T11:43:30.505Z,96343.72
2022-09-26T11:46:49.161Z,96325.13
2022-09-26T11:50:24.369Z,96332.44
2022-09-26T11:53:55.831Z,96338.34
2022-09-26T11:57:12.918Z,96343.44
2022-09-26T12:00:24.546Z,96341.81
2022-09-26T12:04:06.540Z,96333.63
2022-09-26T12:07:18.905Z,96336.41
2022-09-26T12:10:30.435Z,96329.84
2022-09-26T12:13:47.294Z,96329.03
2022-09-26T12:16:58.745Z,96322.59
2022-09-26T12:20:14.992Z,96319.72
2022-09-26T12:23:25.083Z,96309.59
2022-09-26T12:26:34.747Z,96310.63
2022-09-26T12:29:48.392Z,96300.94
2022-09-26T12:33:04.596Z,96314.66
2022-09-26T12:36:18.936Z,96309.00
2022-09-26T12:39:47.953Z,96308.31
2022-09-26T12:43:09.535Z,96307.53
2022-09-26T12:46:49.671Z,96307.06
2022-09-26T12:50:13.226Z,96300.72
2022-09-26T12:53:30.073Z,96292.66
2022-09-26T12:56:46.019Z,96283.78
2022-09-26T13:00:10.018Z,96278.25
2022-09-26T13:03:51.138Z,96282.06
2022-09-26T13:07:20.443Z,96278.84
2022-09-26T13:10:37.958Z,96277.34
2022-09-26T13:14:14.862Z,96262.59
2022-09-26T13:17:22.618Z,96271.13
2022-09-26T13:20:32.500Z,96252.84
2022-09-26T13:23:41.040Z,96252.66
2022-09-26T13:26:50.708Z,96244.41
2022-09-26T13:30:03.346Z,96239.00
2022-09-26T13:33:14.186Z,96235.28
2022-09-26T13:36:18.821Z,96242.34
2022-09-26T13:39:30.741Z,96238.53
2022-09-26T13:42:43.303Z,96241.97
2022-09-26T13:45:56.235Z,96229.69
2022-09-26T13:49:08.425Z,96233.38
2022-09-26T13:52:22.638Z,96233.38
2022-09-26T13:55:29.215Z,96225.31
2022-09-26T13:58:40.154Z,96228.44
2022-09-26T14:02:16.360Z,96223.78
2022-09-26T14:05:47.814Z,96226.38
2022-09-26T14:09:28.766Z,96223.44
2022-09-26T14:12:54.219Z,96217.09
2022-09-26T14:16:02.758Z,96210.84
2022-09-26T14:19:09.892Z,96201.00
2022-09-26T14:22:34.693Z,96197.00
2022-09-26T14:25:56.610Z,96203.94
2022-09-26T14:29:31.504Z,96197.38
2022-09-26T14:32:39.338Z,96188.97
2022-09-26T14:35:43.223Z,96175.81
2022-09-26T14:38:47.787Z,96177.47
2022-09-26T14:41:50.979Z,96174.44
2022-09-26T14:44:58.697Z,96171.34
2022-09-26T14:48:13.651Z,96168.16
2022-09-26T14:51:28.644Z,96168.78
2022-09-26T14:54:39.591Z,96161.59
2022-09-26T14:57:42.330Z,96156.50
2022-09-26T15:00:50.499Z,96158.47
2022-09-26T15:04:03.578Z,96167.94
2022-09-26T15:07:15.393Z,96153.66
2022-09-26T15:10:22.394Z,96152.06
2022-09-26T15:13:32.437Z,96139.03
2022-09-26T15:16:42.871Z,96147.69
2022-09-26T15:19:51.078Z,96146.75
2022-09-26T15:22:57.226Z,96139.72
2022-09-26T15:26:02.728Z,96137.75
2022-09-26T15:29:08.964Z,96127.66
2022-09-26T15:32:21.057Z,96127.88
2022-09-26T15:35:24.275Z,96135.72
2022-09-26T15:38:27.102Z,96137.94
2022-09-26T15:41:47.443Z,96131.72
2022-09-26T15:44:58.510Z,96123.66
2022-09-26T15:48:04.752Z,96123.22
2022-09-26T15:51:13.687Z,96114.50
2022-09-26T15:54:23.869Z,96109.78
2022-09-26T15:57:26.933Z,96111.16
2022-09-26T16:00:33.750Z,96105.53
2022-09-26T16:03:46.788Z,96095.16
2022-09-26T16:06:59.277Z,96088.94
2022-09-26T16:10:05.007Z,96079.53
2022-09-26T16:13:25.753Z,96080.56
2022-09-26T16:16:32.148Z,96076.53
2022-09-26T16:19:43.267Z,96078.97
2022-09-26T16:22:51.069Z,96077.69
2022-09-26T16:25:56.354Z,96072.41
2022-09-26T16:29:00.355Z,96063.34
2022-09-26T16:32:04.391Z,96064.13
2022-09-26T16:35:19.680Z,96063.09
2022-09-26T16:38:26.834Z,96056.06
2022-09-26T16:41:59.986Z,96049.19
2022-09-26T16:48:56.644Z,96048.13
2022-09-26T16:52:27.801Z,96046.44
2022-09-26T16:55:35.067Z,96032.31
2022-09-26T16:58:37.854Z,96026.56
2022-09-26T17:01:55.708Z,96028.50
2022-09-26T17:04:58.824Z,96027.78
2022-09-26T17:08:04.349Z,96023.53
2022-09-26T17:11:15.231Z,96011.66
2022-09-26T17:14:19.909Z,96008.72
2022-09-26T17:17:25.414Z,96001.69
2022-09-26T17:20:29.555Z,95996.88
2022-09-26T17:23:41.169Z,95999.72
2022-09-26T17:26:50.642Z,96002.34
2022-09-26T17:29:56.441Z,95989.03
2022-09-26T17:33:00.452Z,95994.41
2022-09-26T17:36:03.901Z,95982.47
2022-09-26T17:39:14.161Z,95988.09
2022-09-26T17:42:17.553Z,96004.84
2022-09-26T17:45:20.443Z,95999.16
2022-09-26T17:48:28.403Z,95991.63
2022-09-26T17:51:31.688Z,95983.63
2022-09-26T17:54:42.568Z,95980.19
2022-09-26T17:57:45.462Z,95981.19
2022-09-26T18:00:51.208Z,95987.97
2022-09-26T18:03:56.969Z,95979.09
2022-09-26T18:07:04.498Z,95980.38
2022-09-26T18:10:19.616Z,95971.09
2022-09-26T18:13:26.771Z,95969.09
2022-09-26T18:16:30.050Z,95973.94
2022-09-26T18:19:35.260Z,95970.91
2022-09-26T18:22:38.271Z,95967.53
2022-09-26T18:25:45.354Z,95955.84
2022-09-26T18:28:48.118Z,95959.41
2022-09-26T18:31:51.134Z,95957.19
2022-09-26T18:34:54.416Z,95949.16
2022-09-26T18:37:57.627Z,95943.97
2022-09-26T18:41:01.989Z,95956.69
2022-09-26T18:44:05.489Z,95950.09
2022-09-26T18:47:15.374Z,95952.16
2022-09-26T18:50:22.449Z,95953.19
2022-09-26T18:53:29.559Z,95949.44
2022-09-26T18:56:51.260Z,95949.09
2022-09-26T18:59:54.264Z,95946.31
2022-09-26T19:02:58.065Z,95949.91
2022-09-26T19:06:04.408Z,95938.63
2022-09-26T19:09:10.962Z,95935.78
2022-09-26T19:12:17.212Z,95932.69
2022-09-26T19:15:20.264Z,95924.69
2022-09-26T19:18:23.194Z,95922.88
2022-09-26T19:21:31.584Z,95920.69
2022-09-26T19:24:37.534Z,95919.00
2022-09-26T19:27:46.219Z,95910.63
2022-09-26T19:30:49.121Z,95907.81
2022-09-26T19:33:52.425Z,95900.47
2022-09-26T19:36:55.162Z,95888.50
2022-09-26T19:39:58.452Z,95891.84
2022-09-26T19:43:02.784Z,95889.91
2022-09-26T19:46:07.091Z,95897.00
2022-09-26T19:49:17.350Z,95885.72
2022-09-26T19:52:22.352Z,95889.47
2022-09-26T19:55:27.412Z,95884.19
2022-09-26T19:58:31.553Z,95887.19
2022-09-26T20:01:34.545Z,95880.22
2022-09-26T20:04:37.513Z,95879.22
2022-09-26T20:07:44.593Z,95875.25
2022-09-26T20:10:50.719Z,95879.88
2022-09-26T20:24:59.170Z,95861.25
2022-09-26T20:28:02.604Z,95852.41
2022-09-26T20:31:14.282Z,95849.56
2022-09-26T20:34:18.189Z,95842.59
2022-09-26T20:37:21.850Z,95829.59
2022-09-26T20:40:24.919Z,95834.19
2022-09-26T20:43:34.056Z,95833.03
2022-09-26T20:46:49.824Z,95822.13
2022-09-26T20:49:56.874Z,95823.81
2022-09-26T20:52:59.902Z,95814.09
2022-09-26T20:56:04.004Z,95800.09
2022-09-26T20:59:08.041Z,95793.22
2022-09-26T21:02:30.250Z,95780.50
2022-09-26T21:05:33.727Z,95768.47
2022-09-26T21:08:37.231Z,95753.91
2022-09-26T21:11:41.542Z,95764.44
2022-09-26T21:14:44.426Z,95751.84
2022-09-26T21:17:49.518Z,95740.88
2022-09-26T21:20:53.268Z,95738.69
2022-09-26T21:24:22.728Z,95737.28
2022-09-26T21:27:27.828Z,95727.22
2022-09-26T21:30:31.570Z,95728.13
2022-09-26T21:38:18.012Z,95704.31
2022-09-26T21:42:11.606Z,95703.03
2022-09-26T21:50:31.711Z,95690.44
2022-09-26T21:54:34.273Z,95686.88
2022-09-26T21:57:59.479Z,95683.78
2022-09-26T22:01:11.421Z,95673.03
2022-09-26T22:04:34.215Z,95663.66
2022-09-26T22:09:03.584Z,95657.13
2022-09-26T22:12:22.814Z,95651.97
2022-09-26T22:15:40.474Z,95651.09
2022-09-26T22:18:49.327Z,95646.97
2022-09-26T22:21:57.442Z,95642.16
2022-09-26T22:25:11.279Z,95637.31
2022-09-26T22:28:17.118Z,95630.66
2022-09-26T22:31:20.399Z,95627.78
2022-09-26T22:34:30.842Z,95632.38
2022-09-26T22:37:44.359Z,95619.22
2022-09-26T22:41:03.112Z,95611.09
2022-09-26T22:47:49.911Z,95605.81
2022-09-26T22:51:00.331Z,95594.59
2022-09-26T22:54:13.036Z,95590.94
2022-09-26T22:57:25.397Z,95586.00
2022-09-26T23:00:30.306Z,95580.31
2022-09-26T23:03:34.337Z,95565.66
2022-09-26T23:06:49.245Z,95557.28
2022-09-26T23:09:53.633Z,95552.63
2022-09-26T23:13:05.212Z,95546.88
2022-09-26T23:16:35.006Z,95541.63
2022-09-26T23:19:42.376Z,95534.84
2022-09-26T23:23:05.172Z,95533.47
2022-09-26T23:26:16.354Z,95527.66
2022-09-26T23:29:26.790Z,95531.66
2022-09-26T23:33:30.578Z,95523.97
2022-09-26T23:36:54.447Z,95517.69
2022-09-26T23:40:01.823Z,95518.84
2022-09-26T23:43:05.690Z,95518.84
2022-09-26T23:46:17.835Z,95513.09
2022-09-26T23:49:31.412Z,95512.06
2022-09-26T23:53:17.599Z,95517.91
2022-09-26T23:56:26.492Z,95508.53
2022-09-26T23:59:31.780Z,95509.78
